sensor_id;sensor_type;location;lat;lon;timestamp;P1;durP1;ratioP1;P2;durP2;ratioP2
7033;SDS011;3558;53.176;10.412;2023-12-14T03:47:53;1.35;;;1.10;;
7033;SDS011;3558;53.176;10.412;2023-12-14T03:50:18;1.47;;;1.00;;
7033;SDS011;3558;53.176;10.412;2023-12-14T03:52:44;1.23;;;0.90;;
7033;SDS011;3558;53.176;10.412;2023-12-14T03:55:09;2.13;;;1.20;;
7033;SDS011;3558;53.176;10.412;2023-12-14T03:57:35;1.10;;;0.90;;
7033;SDS011;3558;53.176;10.412;2023-12-14T04:00:01;2.00;;;1.00;;
7033;SDS011;3558;53.176;10.412;2023-12-14T04:02:27;0.95;;;0.80;;
7033;SDS011;3558;53.176;10.412;2023-12-14T04:04:52;1.20;;;0.87;;
7033;SDS011;3558;53.176;10.412;2023-12-14T04:07:18;0.90;;;0.80;;
7033;SDS011;3558;53.176;10.412;2023-12-14T04:09:44;1.67;;;0.90;;
7033;SDS011;3558;53.176;10.412;2023-12-14T04:12:10;1.10;;;1.00;;
7033;SDS011;3558;53.176;10.412;2023-12-14T04:14:36;1.00;;;0.83;;
7033;SDS011;3558;53.176;10.412;2023-12-14T04:17:01;1.15;;;0.70;;
7033;SDS011;3558;53.176;10.412;2023-12-14T04:19:27;0.98;;;0.85;;
7033;SDS011;3558;53.176;10.412;2023-12-14T04:21:52;1.40;;;1.00;;
7033;SDS011;3558;53.176;10.412;2023-12-14T04:24:18;1.40;;;0.87;;
7033;SDS011;3558;53.176;10.412;2023-12-14T04:26:43;0.90;;;0.80;;
7033;SDS011;3558;53.176;10.412;2023-12-14T04:29:09;1.50;;;0.90;;
7033;SDS011;3558;53.176;10.412;2023-12-14T04:31:35;1.80;;;0.87;;
7033;SDS011;3558;53.176;10.412;2023-12-14T04:34:00;1.17;;;0.80;;
7033;SDS011;3558;53.176;10.412;2023-12-14T04:36:26;1.23;;;0.90;;
7033;SDS011;3558;53.176;10.412;2023-12-14T04:38:51;0.70;;;0.60;;
7033;SDS011;3558;53.176;10.412;2023-12-14T04:41:17;1.47;;;0.90;;
7033;SDS011;3558;53.176;10.412;2023-12-14T04:43:42;1.00;;;0.80;;
7033;SDS011;3558;53.176;10.412;2023-12-14T04:46:08;1.20;;;0.85;;
7033;SDS011;3558;53.176;10.412;2023-12-14T04:48:33;0.88;;;0.70;;
7033;SDS011;3558;53.176;10.412;2023-12-14T04:50:59;1.20;;;1.00;;
7033;SDS011;3558;53.176;10.412;2023-12-14T04:53:24;0.97;;;0.70;;
7033;SDS011;3558;53.176;10.412;2023-12-14T04:55:50;1.63;;;0.93;;
7033;SDS011;3558;53.176;10.412;2023-12-14T04:58:15;0.90;;;0.80;;
7033;SDS011;3558;53.176;10.412;2023-12-14T05:00:41;1.05;;;0.80;;
7033;SDS011;3558;53.176;10.412;2023-12-14T05:03:06;0.95;;;0.85;;
7033;SDS011;3558;53.176;10.412;2023-12-14T05:05:32;1.33;;;1.00;;
7033;SDS011;3558;53.176;10.412;2023-12-14T05:07:57;1.67;;;1.00;;
7033;SDS011;3558;53.176;10.412;2023-12-14T05:10:23;1.33;;;1.00;;
7033;SDS011;3558;53.176;10.412;2023-12-14T05:12:48;1.50;;;1.15;;
7033;SDS011;3558;53.176;10.412;2023-12-14T05:15:14;1.20;;;1.10;;
7033;SDS011;3558;53.176;10.412;2023-12-14T05:17:39;1.93;;;1.20;;
7033;SDS011;3558;53.176;10.412;2023-12-14T05:20:07;1.57;;;1.00;;
7033;SDS011;3558;53.176;10.412;2023-12-14T05:22:33;2.47;;;1.38;;
7033;SDS011;3558;53.176;10.412;2023-12-14T05:24:59;1.87;;;1.10;;
7033;SDS011;3558;53.176;10.412;2023-12-14T05:27:24;1.60;;;1.20;;
7033;SDS011;3558;53.176;10.412;2023-12-14T05:29:50;1.90;;;1.30;;
7033;SDS011;3558;53.176;10.412;2023-12-14T05:32:15;2.30;;;1.20;;
7033;SDS011;3558;53.176;10.412;2023-12-14T05:34:41;1.58;;;1.20;;
7033;SDS011;3558;53.176;10.412;2023-12-14T05:37:06;1.60;;;1.17;;
7033;SDS011;3558;53.176;10.412;2023-12-14T05:39:32;1.80;;;1.23;;
7033;SDS011;3558;53.176;10.412;2023-12-14T05:41:57;2.03;;;1.17;;
7033;SDS011;3558;53.176;10.412;2023-12-14T05:44:23;1.77;;;1.30;;
7033;SDS011;3558;53.176;10.412;2023-12-14T05:46:49;2.00;;;1.17;;
7033;SDS011;3558;53.176;10.412;2023-12-14T05:49:15;1.40;;;1.10;;
7033;SDS011;3558;53.176;10.412;2023-12-14T05:51:40;1.80;;;1.30;;
7033;SDS011;3558;53.176;10.412;2023-12-14T05:54:06;2.13;;;1.23;;
7033;SDS011;3558;53.176;10.412;2023-12-14T05:56:31;1.60;;;1.17;;
7033;SDS011;3558;53.176;10.412;2023-12-14T05:58:57;1.33;;;1.20;;
7033;SDS011;3558;53.176;10.412;2023-12-14T06:01:24;1.58;;;1.17;;
7033;SDS011;3558;53.176;10.412;2023-12-14T06:03:49;1.83;;;1.10;;
7033;SDS011;3558;53.176;10.412;2023-12-14T06:06:15;1.63;;;1.10;;
7033;SDS011;3558;53.176;10.412;2023-12-14T06:08:40;2.37;;;1.30;;
7033;SDS011;3558;53.176;10.412;2023-12-14T06:11:06;2.10;;;1.40;;
7033;SDS011;3558;53.176;10.412;2023-12-14T06:13:32;1.75;;;1.33;;
7033;SDS011;3558;53.176;10.412;2023-12-14T06:15:58;1.80;;;1.17;;
7033;SDS011;3558;53.176;10.412;2023-12-14T06:18:23;1.50;;;1.15;;
7033;SDS011;3558;53.176;10.412;2023-12-14T06:20:49;1.63;;;1.40;;
7033;SDS011;3558;53.176;10.412;2023-12-14T06:23:15;1.60;;;1.27;;
7033;SDS011;3558;53.176;10.412;2023-12-14T06:25:40;1.83;;;1.30;;
7033;SDS011;3558;53.176;10.412;2023-12-14T06:28:06;1.60;;;1.23;;
7033;SDS011;3558;53.176;10.412;2023-12-14T06:30:31;2.20;;;1.30;;
7033;SDS011;3558;53.176;10.412;2023-12-14T06:32:57;2.47;;;1.30;;
7033;SDS011;3558;53.176;10.412;2023-12-14T06:35:22;1.67;;;1.20;;
7033;SDS011;3558;53.176;10.412;2023-12-14T06:37:48;1.50;;;1.07;;
7033;SDS011;3558;53.176;10.412;2023-12-14T06:40:13;1.70;;;1.23;;
7033;SDS011;3558;53.176;10.412;2023-12-14T06:42:39;1.70;;;1.27;;
7033;SDS011;3558;53.176;10.412;2023-12-14T06:45:04;1.40;;;1.00;;
7033;SDS011;3558;53.176;10.412;2023-12-14T06:47:31;1.57;;;1.30;;
7033;SDS011;3558;53.176;10.412;2023-12-14T06:49:56;1.30;;;1.10;;
7033;SDS011;3558;53.176;10.412;2023-12-14T06:52:22;1.53;;;1.17;;
7033;SDS011;3558;53.176;10.412;2023-12-14T06:54:48;1.60;;;1.27;;
7033;SDS011;3558;53.176;10.412;2023-12-14T06:57:13;1.60;;;1.20;;
7033;SDS011;3558;53.176;10.412;2023-12-14T06:59:39;2.17;;;1.40;;
7033;SDS011;3558;53.176;10.412;2023-12-14T07:02:05;2.17;;;1.40;;
7033;SDS011;3558;53.176;10.412;2023-12-14T07:04:31;1.50;;;1.30;;
7033;SDS011;3558;53.176;10.412;2023-12-14T07:06:56;2.10;;;1.50;;
7033;SDS011;3558;53.176;10.412;2023-12-14T07:09:22;1.60;;;1.30;;
7033;SDS011;3558;53.176;10.412;2023-12-14T07:11:47;2.00;;;1.33;;
7033;SDS011;3558;53.176;10.412;2023-12-14T07:14:13;1.67;;;1.30;;
7033;SDS011;3558;53.176;10.412;2023-12-14T07:16:39;2.10;;;1.20;;
7033;SDS011;3558;53.176;10.412;2023-12-14T07:19:05;1.80;;;1.40;;
7033;SDS011;3558;53.176;10.412;2023-12-14T07:21:31;2.63;;;1.70;;
7033;SDS011;3558;53.176;10.412;2023-12-14T07:23:57;2.22;;;1.50;;
7033;SDS011;3558;53.176;10.412;2023-12-14T07:26:22;1.98;;;1.70;;
7033;SDS011;3558;53.176;10.412;2023-12-14T07:28:48;2.33;;;1.42;;
7033;SDS011;3558;53.176;10.412;2023-12-14T07:31:13;2.67;;;1.80;;
7033;SDS011;3558;53.176;10.412;2023-12-14T07:33:39;3.00;;;1.70;;
7033;SDS011;3558;53.176;10.412;2023-12-14T07:36:04;2.03;;;1.70;;
7033;SDS011;3558;53.176;10.412;2023-12-14T07:38:30;2.30;;;1.90;;
7033;SDS011;3558;53.176;10.412;2023-12-14T07:40:56;2.53;;;2.00;;
7033;SDS011;3558;53.176;10.412;2023-12-14T07:43:21;2.80;;;2.00;;
7033;SDS011;3558;53.176;10.412;2023-12-14T07:45:47;2.17;;;1.60;;
7033;SDS011;3558;53.176;10.412;2023-12-14T07:48:13;2.30;;;1.70;;
7033;SDS011;3558;53.176;10.412;2023-12-14T07:50:39;3.27;;;1.90;;
7033;SDS011;3558;53.176;10.412;2023-12-14T07:53:04;2.67;;;1.80;;
7033;SDS011;3558;53.176;10.412;2023-12-14T07:55:30;2.55;;;1.77;;
7033;SDS011;3558;53.176;10.412;2023-12-14T07:57:56;2.78;;;1.85;;
7033;SDS011;3558;53.176;10.412;2023-12-14T08:00:21;3.77;;;2.10;;
7033;SDS011;3558;53.176;10.412;2023-12-14T08:02:47;2.40;;;1.92;;
7033;SDS011;3558;53.176;10.412;2023-12-14T08:05:12;2.80;;;1.80;;
7033;SDS011;3558;53.176;10.412;2023-12-14T08:07:38;2.20;;;1.80;;
7033;SDS011;3558;53.176;10.412;2023-12-14T08:10:03;3.10;;;2.00;;
7033;SDS011;3558;53.176;10.412;2023-12-14T08:12:29;2.50;;;1.80;;
7033;SDS011;3558;53.176;10.412;2023-12-14T08:14:55;2.40;;;1.90;;
7033;SDS011;3558;53.176;10.412;2023-12-14T08:17:20;2.37;;;1.70;;
7033;SDS011;3558;53.176;10.412;2023-12-14T08:19:46;2.08;;;1.70;;
7033;SDS011;3558;53.176;10.412;2023-12-14T08:22:12;3.17;;;2.00;;
7033;SDS011;3558;53.176;10.412;2023-12-14T08:24:40;2.57;;;2.00;;
7033;SDS011;3558;53.176;10.412;2023-12-14T08:27:06;2.80;;;1.93;;
7033;SDS011;3558;53.176;10.412;2023-12-14T08:29:31;3.13;;;1.90;;
7033;SDS011;3558;53.176;10.412;2023-12-14T08:31:56;2.97;;;2.00;;
7033;SDS011;3558;53.176;10.412;2023-12-14T08:34:24;2.87;;;2.00;;
7033;SDS011;3558;53.176;10.412;2023-12-14T08:36:50;3.28;;;2.10;;
7033;SDS011;3558;53.176;10.412;2023-12-14T08:39:16;3.22;;;2.30;;
7033;SDS011;3558;53.176;10.412;2023-12-14T08:41:41;3.13;;;2.22;;
7033;SDS011;3558;53.176;10.412;2023-12-14T08:44:07;3.77;;;2.20;;
7033;SDS011;3558;53.176;10.412;2023-12-14T08:46:42;3.92;;;2.30;;
7033;SDS011;3558;53.176;10.412;2023-12-14T08:49:10;3.08;;;2.15;;
7033;SDS011;3558;53.176;10.412;2023-12-14T08:51:36;4.38;;;2.30;;
7033;SDS011;3558;53.176;10.412;2023-12-14T08:54:01;3.15;;;2.20;;
7033;SDS011;3558;53.176;10.412;2023-12-14T08:56:27;3.60;;;2.27;;
7033;SDS011;3558;53.176;10.412;2023-12-14T08:58:52;3.70;;;2.37;;
7033;SDS011;3558;53.176;10.412;2023-12-14T09:01:22;3.33;;;2.27;;
7033;SDS011;3558;53.176;10.412;2023-12-14T09:03:48;3.03;;;2.20;;
7033;SDS011;3558;53.176;10.412;2023-12-14T09:06:14;2.47;;;2.10;;
7033;SDS011;3558;53.176;10.412;2023-12-14T09:08:41;2.80;;;2.28;;
7033;SDS011;3558;53.176;10.412;2023-12-14T09:11:06;3.57;;;2.30;;
7033;SDS011;3558;53.176;10.412;2023-12-14T09:13:32;4.00;;;2.30;;
7033;SDS011;3558;53.176;10.412;2023-12-14T09:15:57;2.30;;;2.10;;
7033;SDS011;3558;53.176;10.412;2023-12-14T09:18:23;3.97;;;2.30;;
7033;SDS011;3558;53.176;10.412;2023-12-14T09:20:49;3.47;;;2.25;;
7033;SDS011;3558;53.176;10.412;2023-12-14T09:23:15;3.87;;;2.07;;
7033;SDS011;3558;53.176;10.412;2023-12-14T09:25:41;3.38;;;2.40;;
7033;SDS011;3558;53.176;10.412;2023-12-14T09:28:06;3.08;;;2.15;;
7033;SDS011;3558;53.176;10.412;2023-12-14T09:30:32;3.75;;;2.47;;
7033;SDS011;3558;53.176;10.412;2023-12-14T09:32:58;3.08;;;2.20;;
7033;SDS011;3558;53.176;10.412;2023-12-14T09:35:23;3.58;;;2.28;;
7033;SDS011;3558;53.176;10.412;2023-12-14T09:37:49;3.57;;;2.40;;
7033;SDS011;3558;53.176;10.412;2023-12-14T09:40:14;3.63;;;2.57;;
7033;SDS011;3558;53.176;10.412;2023-12-14T09:42:41;3.63;;;2.40;;
7033;SDS011;3558;53.176;10.412;2023-12-14T09:45:07;4.03;;;2.30;;
7033;SDS011;3558;53.176;10.412;2023-12-14T09:47:34;3.38;;;2.25;;
7033;SDS011;3558;53.176;10.412;2023-12-14T09:50:00;3.08;;;2.17;;
7033;SDS011;3558;53.176;10.412;2023-12-14T09:52:27;2.95;;;2.50;;
7033;SDS011;3558;53.176;10.412;2023-12-14T09:54:53;2.90;;;2.33;;
7033;SDS011;3558;53.176;10.412;2023-12-14T09:57:18;2.80;;;2.20;;
7033;SDS011;3558;53.176;10.412;2023-12-14T09:59:51;3.20;;;2.40;;
7033;SDS011;3558;53.176;10.412;2023-12-14T10:02:17;4.10;;;2.20;;
7033;SDS011;3558;53.176;10.412;2023-12-14T10:04:43;3.90;;;2.27;;
7033;SDS011;3558;53.176;10.412;2023-12-14T10:07:08;3.90;;;2.83;;
7033;SDS011;3558;53.176;10.412;2023-12-14T10:09:35;3.28;;;2.20;;
7033;SDS011;3558;53.176;10.412;2023-12-14T10:12:02;3.10;;;2.25;;
7033;SDS011;3558;53.176;10.412;2023-12-14T10:14:32;4.27;;;2.50;;
7033;SDS011;3558;53.176;10.412;2023-12-14T10:16:58;3.78;;;2.30;;
7033;SDS011;3558;53.176;10.412;2023-12-14T10:19:25;3.25;;;2.38;;
7033;SDS011;3558;53.176;10.412;2023-12-14T10:21:51;3.30;;;2.30;;
7033;SDS011;3558;53.176;10.412;2023-12-14T10:24:17;3.10;;;2.30;;
7033;SDS011;3558;53.176;10.412;2023-12-14T10:26:46;3.00;;;2.30;;
7033;SDS011;3558;53.176;10.412;2023-12-14T10:29:13;3.40;;;2.17;;
7033;SDS011;3558;53.176;10.412;2023-12-14T10:31:38;3.43;;;2.10;;
7033;SDS011;3558;53.176;10.412;2023-12-14T10:34:04;4.53;;;2.40;;
7033;SDS011;3558;53.176;10.412;2023-12-14T10:36:30;3.33;;;2.30;;
7033;SDS011;3558;53.176;10.412;2023-12-14T10:38:57;4.00;;;2.45;;
7033;SDS011;3558;53.176;10.412;2023-12-14T10:41:23;3.80;;;2.50;;
7033;SDS011;3558;53.176;10.412;2023-12-14T10:43:56;3.95;;;2.30;;
7033;SDS011;3558;53.176;10.412;2023-12-14T10:46:23;3.20;;;2.40;;
7033;SDS011;3558;53.176;10.412;2023-12-14T10:48:52;3.53;;;2.45;;
7033;SDS011;3558;53.176;10.412;2023-12-14T10:51:18;2.50;;;2.30;;
7033;SDS011;3558;53.176;10.412;2023-12-14T10:53:45;3.38;;;2.47;;
7033;SDS011;3558;53.176;10.412;2023-12-14T10:56:13;3.50;;;2.60;;
7033;SDS011;3558;53.176;10.412;2023-12-14T11:01:21;3.95;;;2.65;;
7033;SDS011;3558;53.176;10.412;2023-12-14T11:03:54;3.38;;;2.58;;
7033;SDS011;3558;53.176;10.412;2023-12-14T11:08:55;3.20;;;2.63;;
7033;SDS011;3558;53.176;10.412;2023-12-14T11:11:22;2.80;;;2.23;;
7033;SDS011;3558;53.176;10.412;2023-12-14T11:13:53;3.38;;;2.22;;
7033;SDS011;3558;53.176;10.412;2023-12-14T11:16:22;3.42;;;2.55;;
7033;SDS011;3558;53.176;10.412;2023-12-14T11:18:48;2.95;;;2.47;;
7033;SDS011;3558;53.176;10.412;2023-12-14T11:21:33;3.50;;;2.47;;
7033;SDS011;3558;53.176;10.412;2023-12-14T11:23:59;4.30;;;2.60;;
7033;SDS011;3558;53.176;10.412;2023-12-14T11:26:26;3.28;;;2.47;;
7033;SDS011;3558;53.176;10.412;2023-12-14T11:28:53;2.83;;;2.35;;
7033;SDS011;3558;53.176;10.412;2023-12-14T11:31:19;3.40;;;2.20;;
7033;SDS011;3558;53.176;10.412;2023-12-14T11:33:45;2.63;;;2.33;;
7033;SDS011;3558;53.176;10.412;2023-12-14T11:36:12;3.30;;;2.30;;
7033;SDS011;3558;53.176;10.412;2023-12-14T11:38:38;3.40;;;2.50;;
7033;SDS011;3558;53.176;10.412;2023-12-14T11:41:04;3.27;;;2.40;;
7033;SDS011;3558;53.176;10.412;2023-12-14T11:43:29;3.47;;;2.40;;
7033;SDS011;3558;53.176;10.412;2023-12-14T11:46:03;3.78;;;2.58;;
7033;SDS011;3558;53.176;10.412;2023-12-14T11:48:28;3.17;;;2.50;;
7033;SDS011;3558;53.176;10.412;2023-12-14T11:50:54;4.60;;;2.83;;
7033;SDS011;3558;53.176;10.412;2023-12-14T11:53:19;3.60;;;2.70;;
7033;SDS011;3558;53.176;10.412;2023-12-14T11:55:45;3.30;;;2.33;;
7033;SDS011;3558;53.176;10.412;2023-12-14T11:58:14;3.53;;;2.57;;
7033;SDS011;3558;53.176;10.412;2023-12-14T12:00:40;3.73;;;2.67;;
7033;SDS011;3558;53.176;10.412;2023-12-14T12:03:32;4.13;;;2.60;;
7033;SDS011;3558;53.176;10.412;2023-12-14T12:05:58;3.53;;;2.78;;
7033;SDS011;3558;53.176;10.412;2023-12-14T12:08:23;2.80;;;2.40;;
7033;SDS011;3558;53.176;10.412;2023-12-14T12:10:49;3.70;;;2.60;;
7033;SDS011;3558;53.176;10.412;2023-12-14T12:13:16;3.20;;;2.40;;
7033;SDS011;3558;53.176;10.412;2023-12-14T12:15:43;3.20;;;2.60;;
7033;SDS011;3558;53.176;10.412;2023-12-14T12:18:09;3.67;;;2.47;;
7033;SDS011;3558;53.176;10.412;2023-12-14T12:20:36;3.78;;;2.70;;
7033;SDS011;3558;53.176;10.412;2023-12-14T12:23:02;4.22;;;2.67;;
7033;SDS011;3558;53.176;10.412;2023-12-14T12:25:28;3.13;;;2.67;;
7033;SDS011;3558;53.176;10.412;2023-12-14T12:27:56;4.03;;;2.50;;
7033;SDS011;3558;53.176;10.412;2023-12-14T12:30:22;3.50;;;2.55;;
7033;SDS011;3558;53.176;10.412;2023-12-14T12:32:48;3.53;;;2.70;;
7033;SDS011;3558;53.176;10.412;2023-12-14T12:35:15;4.88;;;2.60;;
7033;SDS011;3558;53.176;10.412;2023-12-14T12:37:41;3.40;;;2.67;;
7033;SDS011;3558;53.176;10.412;2023-12-14T12:40:07;2.92;;;2.33;;
7033;SDS011;3558;53.176;10.412;2023-12-14T12:42:33;3.25;;;2.50;;
7033;SDS011;3558;53.176;10.412;2023-12-14T12:44:59;4.05;;;2.60;;
7033;SDS011;3558;53.176;10.412;2023-12-14T12:47:25;3.45;;;2.15;;
7033;SDS011;3558;53.176;10.412;2023-12-14T12:49:51;3.63;;;2.38;;
7033;SDS011;3558;53.176;10.412;2023-12-14T12:52:16;3.20;;;2.25;;
7033;SDS011;3558;53.176;10.412;2023-12-14T12:54:42;2.80;;;2.40;;
7033;SDS011;3558;53.176;10.412;2023-12-14T12:57:07;2.93;;;2.30;;
7033;SDS011;3558;53.176;10.412;2023-12-14T12:59:33;3.30;;;2.40;;
7033;SDS011;3558;53.176;10.412;2023-12-14T13:01:58;3.67;;;2.53;;
7033;SDS011;3558;53.176;10.412;2023-12-14T13:04:24;3.15;;;2.30;;
7033;SDS011;3558;53.176;10.412;2023-12-14T13:06:51;3.92;;;2.50;;
7033;SDS011;3558;53.176;10.412;2023-12-14T13:09:17;2.83;;;2.20;;
7033;SDS011;3558;53.176;10.412;2023-12-14T13:11:43;3.13;;;2.10;;
7033;SDS011;3558;53.176;10.412;2023-12-14T13:14:09;2.87;;;2.30;;
7033;SDS011;3558;53.176;10.412;2023-12-14T13:16:35;2.60;;;2.10;;
7033;SDS011;3558;53.176;10.412;2023-12-14T13:19:01;2.75;;;2.20;;
7033;SDS011;3558;53.176;10.412;2023-12-14T13:21:28;2.78;;;2.20;;
7033;SDS011;3558;53.176;10.412;2023-12-14T13:23:54;3.13;;;2.40;;
7033;SDS011;3558;53.176;10.412;2023-12-14T13:26:22;3.20;;;2.25;;
7033;SDS011;3558;53.176;10.412;2023-12-14T13:28:47;2.93;;;2.17;;
7033;SDS011;3558;53.176;10.412;2023-12-14T13:31:13;3.00;;;2.20;;
7033;SDS011;3558;53.176;10.412;2023-12-14T13:33:39;2.80;;;2.30;;
7033;SDS011;3558;53.176;10.412;2023-12-14T13:36:04;3.03;;;2.23;;
7033;SDS011;3558;53.176;10.412;2023-12-14T13:38:30;3.07;;;2.30;;
7033;SDS011;3558;53.176;10.412;2023-12-14T13:40:58;3.10;;;2.10;;
7033;SDS011;3558;53.176;10.412;2023-12-14T13:43:24;2.77;;;2.10;;
7033;SDS011;3558;53.176;10.412;2023-12-14T13:45:49;2.47;;;1.90;;
7033;SDS011;3558;53.176;10.412;2023-12-14T13:48:17;3.00;;;2.17;;
7033;SDS011;3558;53.176;10.412;2023-12-14T13:50:43;2.47;;;2.00;;
7033;SDS011;3558;53.176;10.412;2023-12-14T13:53:09;2.80;;;2.17;;
7033;SDS011;3558;53.176;10.412;2023-12-14T13:55:35;2.55;;;2.13;;
7033;SDS011;3558;53.176;10.412;2023-12-14T13:58:00;2.97;;;2.13;;
7033;SDS011;3558;53.176;10.412;2023-12-14T14:00:27;3.03;;;2.00;;
7033;SDS011;3558;53.176;10.412;2023-12-14T14:02:52;3.00;;;2.10;;
7033;SDS011;3558;53.176;10.412;2023-12-14T14:05:18;2.97;;;1.90;;
7033;SDS011;3558;53.176;10.412;2023-12-14T14:07:43;2.63;;;2.10;;
7033;SDS011;3558;53.176;10.412;2023-12-14T14:10:09;2.58;;;2.05;;
7033;SDS011;3558;53.176;10.412;2023-12-14T14:12:35;2.65;;;2.00;;
7033;SDS011;3558;53.176;10.412;2023-12-14T14:15:00;4.27;;;2.50;;
7033;SDS011;3558;53.176;10.412;2023-12-14T14:17:26;2.90;;;2.00;;
7033;SDS011;3558;53.176;10.412;2023-12-14T14:19:51;3.27;;;2.27;;
7033;SDS011;3558;53.176;10.412;2023-12-14T14:22:17;2.97;;;2.00;;
7033;SDS011;3558;53.176;10.412;2023-12-14T14:24:42;2.90;;;2.00;;
7033;SDS011;3558;53.176;10.412;2023-12-14T14:27:08;3.00;;;2.03;;
7033;SDS011;3558;53.176;10.412;2023-12-14T14:29:33;2.70;;;2.00;;
7033;SDS011;3558;53.176;10.412;2023-12-14T14:31:59;3.80;;;2.20;;
7033;SDS011;3558;53.176;10.412;2023-12-14T14:34:25;3.13;;;2.00;;
7033;SDS011;3558;53.176;10.412;2023-12-14T14:36:50;2.47;;;1.95;;
7033;SDS011;3558;53.176;10.412;2023-12-14T14:39:16;2.23;;;2.03;;
7033;SDS011;3558;53.176;10.412;2023-12-14T14:41:43;2.28;;;1.80;;
7033;SDS011;3558;53.176;10.412;2023-12-14T14:44:09;3.00;;;2.10;;
7033;SDS011;3558;53.176;10.412;2023-12-14T14:46:34;2.10;;;1.70;;
7033;SDS011;3558;53.176;10.412;2023-12-14T14:49:00;2.38;;;1.75;;
7033;SDS011;3558;53.176;10.412;2023-12-14T14:51:26;2.80;;;1.88;;
7033;SDS011;3558;53.176;10.412;2023-12-14T14:53:52;2.80;;;2.10;;
7033;SDS011;3558;53.176;10.412;2023-12-14T14:56:17;2.23;;;1.73;;
7033;SDS011;3558;53.176;10.412;2023-12-14T14:58:43;2.85;;;1.80;;
7033;SDS011;3558;53.176;10.412;2023-12-14T15:01:10;2.78;;;1.70;;
7033;SDS011;3558;53.176;10.412;2023-12-14T15:03:36;2.50;;;1.80;;
7033;SDS011;3558;53.176;10.412;2023-12-14T15:06:01;1.90;;;1.60;;
7033;SDS011;3558;53.176;10.412;2023-12-14T15:08:27;1.90;;;1.67;;
7033;SDS011;3558;53.176;10.412;2023-12-14T15:10:52;2.50;;;1.90;;
7033;SDS011;3558;53.176;10.412;2023-12-14T15:13:20;2.05;;;1.70;;
7033;SDS011;3558;53.176;10.412;2023-12-14T15:15:47;2.42;;;1.73;;
7033;SDS011;3558;53.176;10.412;2023-12-14T15:18:12;2.65;;;1.77;;
7033;SDS011;3558;53.176;10.412;2023-12-14T15:20:38;2.00;;;1.60;;
7033;SDS011;3558;53.176;10.412;2023-12-14T15:23:05;1.92;;;1.70;;
7033;SDS011;3558;53.176;10.412;2023-12-14T15:25:33;1.85;;;1.65;;
7033;SDS011;3558;53.176;10.412;2023-12-14T15:27:58;1.90;;;1.70;;
7033;SDS011;3558;53.176;10.412;2023-12-14T15:30:24;2.08;;;1.60;;
7033;SDS011;3558;53.176;10.412;2023-12-14T15:32:50;1.80;;;1.55;;
7033;SDS011;3558;53.176;10.412;2023-12-14T15:35:15;1.97;;;1.73;;
7033;SDS011;3558;53.176;10.412;2023-12-14T15:37:41;2.08;;;1.73;;
7033;SDS011;3558;53.176;10.412;2023-12-14T15:40:07;2.00;;;1.70;;
7033;SDS011;3558;53.176;10.412;2023-12-14T15:42:33;2.00;;;1.60;;
7033;SDS011;3558;53.176;10.412;2023-12-14T15:44:59;2.13;;;1.80;;
7033;SDS011;3558;53.176;10.412;2023-12-14T15:47:24;2.23;;;1.90;;
7033;SDS011;3558;53.176;10.412;2023-12-14T15:49:50;2.25;;;1.92;;
7033;SDS011;3558;53.176;10.412;2023-12-14T15:52:15;2.03;;;1.80;;
7033;SDS011;3558;53.176;10.412;2023-12-14T15:54:41;2.53;;;1.93;;
7033;SDS011;3558;53.176;10.412;2023-12-14T15:57:06;3.30;;;2.20;;
7033;SDS011;3558;53.176;10.412;2023-12-14T15:59:32;2.30;;;2.03;;
7033;SDS011;3558;53.176;10.412;2023-12-14T16:01:57;3.00;;;2.00;;
7033;SDS011;3558;53.176;10.412;2023-12-14T16:04:23;3.40;;;2.60;;
7033;SDS011;3558;53.176;10.412;2023-12-14T16:06:49;3.15;;;2.63;;
7033;SDS011;3558;53.176;10.412;2023-12-14T16:09:15;3.40;;;2.72;;
7033;SDS011;3558;53.176;10.412;2023-12-14T16:11:41;3.50;;;2.85;;
7033;SDS011;3558;53.176;10.412;2023-12-14T16:14:07;4.60;;;3.43;;
7033;SDS011;3558;53.176;10.412;2023-12-14T16:16:32;3.97;;;3.27;;
7033;SDS011;3558;53.176;10.412;2023-12-14T16:18:58;4.93;;;3.77;;
7033;SDS011;3558;53.176;10.412;2023-12-14T16:21:23;5.82;;;4.00;;
7033;SDS011;3558;53.176;10.412;2023-12-14T16:23:49;5.10;;;3.80;;
7033;SDS011;3558;53.176;10.412;2023-12-14T16:26:15;5.18;;;3.85;;
7033;SDS011;3558;53.176;10.412;2023-12-14T16:28:41;4.50;;;3.72;;
7033;SDS011;3558;53.176;10.412;2023-12-14T16:31:06;5.03;;;3.80;;
7033;SDS011;3558;53.176;10.412;2023-12-14T16:33:32;6.00;;;4.20;;
7033;SDS011;3558;53.176;10.412;2023-12-14T16:35:58;5.07;;;3.77;;
7033;SDS011;3558;53.176;10.412;2023-12-14T16:38:24;4.70;;;3.63;;
7033;SDS011;3558;53.176;10.412;2023-12-14T16:40:49;5.13;;;4.07;;
7033;SDS011;3558;53.176;10.412;2023-12-14T16:43:15;4.88;;;3.90;;
7033;SDS011;3558;53.176;10.412;2023-12-14T16:45:47;4.75;;;3.80;;
7033;SDS011;3558;53.176;10.412;2023-12-14T16:48:18;4.57;;;3.65;;
7033;SDS011;3558;53.176;10.412;2023-12-14T16:50:44;5.50;;;3.70;;
7033;SDS011;3558;53.176;10.412;2023-12-14T16:53:09;4.50;;;3.60;;
7033;SDS011;3558;53.176;10.412;2023-12-14T16:55:35;5.30;;;3.73;;
7033;SDS011;3558;53.176;10.412;2023-12-14T16:58:00;4.90;;;3.73;;
7033;SDS011;3558;53.176;10.412;2023-12-14T17:00:26;5.28;;;3.40;;
7033;SDS011;3558;53.176;10.412;2023-12-14T17:02:51;4.20;;;3.40;;
7033;SDS011;3558;53.176;10.412;2023-12-14T17:05:16;4.00;;;3.10;;
7033;SDS011;3558;53.176;10.412;2023-12-14T17:07:42;3.93;;;3.03;;
7033;SDS011;3558;53.176;10.412;2023-12-14T17:10:07;3.90;;;3.20;;
7033;SDS011;3558;53.176;10.412;2023-12-14T17:12:33;3.65;;;3.30;;
7033;SDS011;3558;53.176;10.412;2023-12-14T17:14:58;3.63;;;3.10;;
7033;SDS011;3558;53.176;10.412;2023-12-14T17:17:24;3.27;;;2.57;;
7033;SDS011;3558;53.176;10.412;2023-12-14T17:19:51;3.60;;;2.85;;
7033;SDS011;3558;53.176;10.412;2023-12-14T17:22:17;4.60;;;3.13;;
7033;SDS011;3558;53.176;10.412;2023-12-14T17:24:42;3.67;;;3.00;;
7033;SDS011;3558;53.176;10.412;2023-12-14T17:27:08;4.65;;;3.00;;
7033;SDS011;3558;53.176;10.412;2023-12-14T17:29:34;3.70;;;3.20;;
7033;SDS011;3558;53.176;10.412;2023-12-14T17:31:59;4.30;;;3.37;;
7033;SDS011;3558;53.176;10.412;2023-12-14T17:34:25;4.63;;;3.20;;
7033;SDS011;3558;53.176;10.412;2023-12-14T17:36:50;4.05;;;3.10;;
7033;SDS011;3558;53.176;10.412;2023-12-14T17:39:16;3.88;;;3.20;;
7033;SDS011;3558;53.176;10.412;2023-12-14T17:41:44;4.13;;;3.20;;
7033;SDS011;3558;53.176;10.412;2023-12-14T17:44:11;3.55;;;3.20;;
7033;SDS011;3558;53.176;10.412;2023-12-14T17:46:36;3.80;;;3.30;;
7033;SDS011;3558;53.176;10.412;2023-12-14T17:49:02;4.17;;;3.37;;
7033;SDS011;3558;53.176;10.412;2023-12-14T17:51:27;3.43;;;3.07;;
7033;SDS011;3558;53.176;10.412;2023-12-14T17:53:53;3.20;;;2.90;;
7033;SDS011;3558;53.176;10.412;2023-12-14T17:56:19;4.25;;;3.53;;
7033;SDS011;3558;53.176;10.412;2023-12-14T17:58:46;3.67;;;3.20;;
7033;SDS011;3558;53.176;10.412;2023-12-14T18:01:12;3.95;;;3.13;;
7033;SDS011;3558;53.176;10.412;2023-12-14T18:03:37;3.38;;;2.88;;
7033;SDS011;3558;53.176;10.412;2023-12-14T18:06:03;4.25;;;3.30;;
7033;SDS011;3558;53.176;10.412;2023-12-14T18:08:29;3.60;;;3.05;;
7033;SDS011;3558;53.176;10.412;2023-12-14T18:10:54;3.22;;;2.90;;
7033;SDS011;3558;53.176;10.412;2023-12-14T18:13:21;3.92;;;3.00;;
7033;SDS011;3558;53.176;10.412;2023-12-14T18:15:47;3.30;;;3.00;;
7033;SDS011;3558;53.176;10.412;2023-12-14T18:18:13;3.20;;;2.90;;
7033;SDS011;3558;53.176;10.412;2023-12-14T18:20:38;3.30;;;3.00;;
7033;SDS011;3558;53.176;10.412;2023-12-14T18:23:04;3.60;;;3.20;;
7033;SDS011;3558;53.176;10.412;2023-12-14T18:25:31;3.58;;;2.85;;
7033;SDS011;3558;53.176;10.412;2023-12-14T18:27:57;4.03;;;3.00;;
7033;SDS011;3558;53.176;10.412;2023-12-14T18:30:26;3.15;;;2.85;;
7033;SDS011;3558;53.176;10.412;2023-12-14T18:32:52;3.40;;;2.97;;
7033;SDS011;3558;53.176;10.412;2023-12-14T18:35:18;3.15;;;2.78;;
7033;SDS011;3558;53.176;10.412;2023-12-14T18:37:44;3.20;;;2.90;;
7033;SDS011;3558;53.176;10.412;2023-12-14T18:40:09;2.93;;;2.63;;
7033;SDS011;3558;53.176;10.412;2023-12-14T18:42:35;3.33;;;2.85;;
7033;SDS011;3558;53.176;10.412;2023-12-14T18:45:01;3.17;;;2.60;;